sensor_id;sensor_type;location;lat;lon;timestamp;P1;durP1;ratioP1;P2;durP2;ratioP2
32748;SDS011;19119;52.474;13.710;2023-05-29T00:00:11;11.90;;;3.97;;
32748;SDS011;19119;52.474;13.710;2023-05-29T00:02:38;5.72;;;3.47;;
32748;SDS011;19119;52.474;13.710;2023-05-29T00:05:04;9.18;;;3.80;;
32748;SDS011;19119;52.474;13.710;2023-05-29T00:07:30;13.77;;;3.92;;
32748;SDS011;19119;52.474;13.710;2023-05-29T00:09:57;9.45;;;4.07;;
32748;SDS011;19119;52.474;13.710;2023-05-29T00:12:23;11.23;;;3.83;;
32748;SDS011;19119;52.474;13.710;2023-05-29T00:14:49;7.28;;;3.50;;
32748;SDS011;19119;52.474;13.710;2023-05-29T00:17:14;10.00;;;4.03;;
32748;SDS011;19119;52.474;13.710;2023-05-29T00:19:41;10.35;;;4.30;;
32748;SDS011;19119;52.474;13.710;2023-05-29T00:22:07;10.73;;;3.60;;
32748;SDS011;19119;52.474;13.710;2023-05-29T00:24:33;8.73;;;4.00;;
32748;SDS011;19119;52.474;13.710;2023-05-29T00:26:58;13.45;;;4.22;;
32748;SDS011;19119;52.474;13.710;2023-05-29T00:29:24;9.55;;;4.03;;
32748;SDS011;19119;52.474;13.710;2023-05-29T00:31:49;10.77;;;4.38;;
32748;SDS011;19119;52.474;13.710;2023-05-29T00:34:18;12.70;;;4.00;;
32748;SDS011;19119;52.474;13.710;2023-05-29T00:36:48;10.45;;;4.45;;
32748;SDS011;19119;52.474;13.710;2023-05-29T00:39:13;8.07;;;4.05;;
32748;SDS011;19119;52.474;13.710;2023-05-29T00:41:39;8.48;;;4.10;;
32748;SDS011;19119;52.474;13.710;2023-05-29T00:44:04;10.20;;;4.47;;
32748;SDS011;19119;52.474;13.710;2023-05-29T00:46:30;10.13;;;4.50;;
32748;SDS011;19119;52.474;13.710;2023-05-29T00:48:57;7.63;;;3.75;;
32748;SDS011;19119;52.474;13.710;2023-05-29T00:51:23;9.75;;;3.55;;
32748;SDS011;19119;52.474;13.710;2023-05-29T00:53:50;11.25;;;4.18;;
32748;SDS011;19119;52.474;13.710;2023-05-29T00:56:17;14.30;;;4.57;;
32748;SDS011;19119;52.474;13.710;2023-05-29T00:58:45;12.23;;;5.22;;
32748;SDS011;19119;52.474;13.710;2023-05-29T01:01:12;13.52;;;4.57;;
32748;SDS011;19119;52.474;13.710;2023-05-29T01:03:38;12.25;;;4.97;;
32748;SDS011;19119;52.474;13.710;2023-05-29T01:06:05;12.00;;;3.63;;
32748;SDS011;19119;52.474;13.710;2023-05-29T01:08:30;13.43;;;4.50;;
32748;SDS011;19119;52.474;13.710;2023-05-29T01:10:56;11.32;;;4.35;;
32748;SDS011;19119;52.474;13.710;2023-05-29T01:13:30;12.95;;;4.60;;
32748;SDS011;19119;52.474;13.710;2023-05-29T01:18:51;10.20;;;4.47;;
32748;SDS011;19119;52.474;13.710;2023-05-29T01:24:35;11.13;;;4.03;;
32748;SDS011;19119;52.474;13.710;2023-05-29T01:27:09;10.68;;;3.90;;
32748;SDS011;19119;52.474;13.710;2023-05-29T01:29:37;7.20;;;3.85;;
32748;SDS011;19119;52.474;13.710;2023-05-29T01:32:05;10.27;;;3.60;;
32748;SDS011;19119;52.474;13.710;2023-05-29T01:34:32;9.82;;;5.15;;
32748;SDS011;19119;52.474;13.710;2023-05-29T01:36:57;8.10;;;4.50;;
32748;SDS011;19119;52.474;13.710;2023-05-29T01:39:23;11.13;;;4.15;;
32748;SDS011;19119;52.474;13.710;2023-05-29T01:41:49;6.93;;;3.70;;
32748;SDS011;19119;52.474;13.710;2023-05-29T01:44:16;8.45;;;4.20;;
32748;SDS011;19119;52.474;13.710;2023-05-29T01:46:43;11.23;;;5.03;;
32748;SDS011;19119;52.474;13.710;2023-05-29T01:49:10;10.32;;;3.90;;
32748;SDS011;19119;52.474;13.710;2023-05-29T01:51:36;12.23;;;3.72;;
32748;SDS011;19119;52.474;13.710;2023-05-29T01:54:05;8.75;;;3.60;;
32748;SDS011;19119;52.474;13.710;2023-05-29T01:56:31;9.75;;;4.32;;
32748;SDS011;19119;52.474;13.710;2023-05-29T01:58:57;8.90;;;3.90;;
32748;SDS011;19119;52.474;13.710;2023-05-29T02:01:23;9.65;;;3.80;;
32748;SDS011;19119;52.474;13.710;2023-05-29T02:03:49;12.18;;;4.82;;
32748;SDS011;19119;52.474;13.710;2023-05-29T02:06:16;7.25;;;4.25;;
32748;SDS011;19119;52.474;13.710;2023-05-29T02:08:42;10.85;;;3.90;;
32748;SDS011;19119;52.474;13.710;2023-05-29T02:11:07;8.52;;;4.32;;
32748;SDS011;19119;52.474;13.710;2023-05-29T02:13:33;8.80;;;3.13;;
32748;SDS011;19119;52.474;13.710;2023-05-29T02:15:59;9.27;;;3.63;;
32748;SDS011;19119;52.474;13.710;2023-05-29T02:18:25;9.00;;;3.60;;
32748;SDS011;19119;52.474;13.710;2023-05-29T02:20:51;10.65;;;3.60;;
32748;SDS011;19119;52.474;13.710;2023-05-29T02:23:17;11.52;;;4.03;;
32748;SDS011;19119;52.474;13.710;2023-05-29T02:25:44;9.18;;;4.38;;
32748;SDS011;19119;52.474;13.710;2023-05-29T02:28:09;7.10;;;3.47;;
32748;SDS011;19119;52.474;13.710;2023-05-29T02:30:35;9.35;;;3.92;;
32748;SDS011;19119;52.474;13.710;2023-05-29T02:33:00;5.57;;;3.42;;
32748;SDS011;19119;52.474;13.710;2023-05-29T02:35:26;9.63;;;4.05;;
32748;SDS011;19119;52.474;13.710;2023-05-29T02:37:51;11.40;;;3.63;;
32748;SDS011;19119;52.474;13.710;2023-05-29T02:40:18;11.60;;;4.00;;
32748;SDS011;19119;52.474;13.710;2023-05-29T02:42:44;10.40;;;4.00;;
32748;SDS011;19119;52.474;13.710;2023-05-29T02:45:10;8.20;;;3.53;;
32748;SDS011;19119;52.474;13.710;2023-05-29T02:47:35;10.02;;;4.00;;
32748;SDS011;19119;52.474;13.710;2023-05-29T02:50:01;10.10;;;3.45;;
32748;SDS011;19119;52.474;13.710;2023-05-29T02:52:27;13.00;;;4.45;;
32748;SDS011;19119;52.474;13.710;2023-05-29T02:54:55;8.13;;;3.40;;
32748;SDS011;19119;52.474;13.710;2023-05-29T02:57:21;9.93;;;4.13;;
32748;SDS011;19119;52.474;13.710;2023-05-29T02:59:46;8.85;;;3.72;;
32748;SDS011;19119;52.474;13.710;2023-05-29T03:02:12;7.95;;;3.80;;
32748;SDS011;19119;52.474;13.710;2023-05-29T03:04:37;8.45;;;4.15;;
32748;SDS011;19119;52.474;13.710;2023-05-29T03:07:03;8.60;;;3.50;;
32748;SDS011;19119;52.474;13.710;2023-05-29T03:09:29;9.32;;;4.30;;
32748;SDS011;19119;52.474;13.710;2023-05-29T03:11:54;8.35;;;3.72;;
32748;SDS011;19119;52.474;13.710;2023-05-29T03:14:20;8.18;;;3.85;;
32748;SDS011;19119;52.474;13.710;2023-05-29T03:16:46;9.50;;;4.05;;
32748;SDS011;19119;52.474;13.710;2023-05-29T03:19:12;7.28;;;3.55;;
32748;SDS011;19119;52.474;13.710;2023-05-29T03:21:38;10.20;;;3.88;;
32748;SDS011;19119;52.474;13.710;2023-05-29T03:24:03;10.43;;;3.08;;
32748;SDS011;19119;52.474;13.710;2023-05-29T03:26:29;17.73;;;4.45;;
32748;SDS011;19119;52.474;13.710;2023-05-29T03:28:54;8.95;;;4.13;;
32748;SDS011;19119;52.474;13.710;2023-05-29T03:31:20;13.23;;;4.18;;
32748;SDS011;19119;52.474;13.710;2023-05-29T03:33:46;12.75;;;4.57;;
32748;SDS011;19119;52.474;13.710;2023-05-29T03:36:12;8.98;;;3.42;;
32748;SDS011;19119;52.474;13.710;2023-05-29T03:38:38;13.48;;;4.40;;
32748;SDS011;19119;52.474;13.710;2023-05-29T03:41:03;10.18;;;4.10;;
32748;SDS011;19119;52.474;13.710;2023-05-29T03:43:29;12.50;;;3.95;;
32748;SDS011;19119;52.474;13.710;2023-05-29T03:45:54;13.35;;;3.65;;
32748;SDS011;19119;52.474;13.710;2023-05-29T03:48:20;9.07;;;3.58;;
32748;SDS011;19119;52.474;13.710;2023-05-29T03:50:46;8.88;;;3.65;;
32748;SDS011;19119;52.474;13.710;2023-05-29T03:53:11;14.02;;;3.45;;
32748;SDS011;19119;52.474;13.710;2023-05-29T03:55:37;10.05;;;3.85;;
32748;SDS011;19119;52.474;13.710;2023-05-29T03:58:02;10.50;;;3.70;;
32748;SDS011;19119;52.474;13.710;2023-05-29T04:00:28;12.90;;;4.20;;
32748;SDS011;19119;52.474;13.710;2023-05-29T04:02:54;9.60;;;3.97;;
32748;SDS011;19119;52.474;13.710;2023-05-29T04:05:21;7.20;;;3.75;;
32748;SDS011;19119;52.474;13.710;2023-05-29T04:07:47;9.15;;;4.22;;
32748;SDS011;19119;52.474;13.710;2023-05-29T04:10:12;8.52;;;5.03;;
32748;SDS011;19119;52.474;13.710;2023-05-29T04:12:38;13.05;;;4.63;;
32748;SDS011;19119;52.474;13.710;2023-05-29T04:15:03;11.13;;;4.20;;
32748;SDS011;19119;52.474;13.710;2023-05-29T04:17:30;7.45;;;3.78;;
32748;SDS011;19119;52.474;13.710;2023-05-29T04:19:55;7.82;;;3.70;;
32748;SDS011;19119;52.474;13.710;2023-05-29T04:22:21;9.48;;;3.47;;
32748;SDS011;19119;52.474;13.710;2023-05-29T04:24:46;8.98;;;3.35;;
32748;SDS011;19119;52.474;13.710;2023-05-29T04:27:12;9.18;;;3.70;;
32748;SDS011;19119;52.474;13.710;2023-05-29T04:29:41;9.82;;;4.07;;
32748;SDS011;19119;52.474;13.710;2023-05-29T04:32:07;8.45;;;3.55;;
32748;SDS011;19119;52.474;13.710;2023-05-29T04:34:34;7.40;;;3.80;;
32748;SDS011;19119;52.474;13.710;2023-05-29T04:37:00;8.63;;;3.63;;
32748;SDS011;19119;52.474;13.710;2023-05-29T04:39:27;8.02;;;3.25;;
32748;SDS011;19119;52.474;13.710;2023-05-29T04:41:53;7.30;;;3.67;;
32748;SDS011;19119;52.474;13.710;2023-05-29T04:44:18;8.52;;;3.88;;
32748;SDS011;19119;52.474;13.710;2023-05-29T04:46:44;8.20;;;3.00;;
32748;SDS011;19119;52.474;13.710;2023-05-29T04:49:12;9.48;;;3.35;;
32748;SDS011;19119;52.474;13.710;2023-05-29T04:51:38;7.18;;;2.72;;
32748;SDS011;19119;52.474;13.710;2023-05-29T04:54:07;6.15;;;3.50;;
32748;SDS011;19119;52.474;13.710;2023-05-29T04:56:34;5.28;;;3.22;;
32748;SDS011;19119;52.474;13.710;2023-05-29T04:58:59;7.20;;;4.25;;
32748;SDS011;19119;52.474;13.710;2023-05-29T05:01:25;7.97;;;3.17;;
32748;SDS011;19119;52.474;13.710;2023-05-29T05:03:51;9.23;;;3.63;;
32748;SDS011;19119;52.474;13.710;2023-05-29T05:06:20;7.65;;;3.10;;
32748;SDS011;19119;52.474;13.710;2023-05-29T05:08:46;8.10;;;2.97;;
32748;SDS011;19119;52.474;13.710;2023-05-29T05:11:12;4.80;;;2.90;;
32748;SDS011;19119;52.474;13.710;2023-05-29T05:13:38;6.75;;;3.40;;
32748;SDS011;19119;52.474;13.710;2023-05-29T05:16:05;4.93;;;2.40;;
32748;SDS011;19119;52.474;13.710;2023-05-29T05:18:31;6.43;;;2.80;;
32748;SDS011;19119;52.474;13.710;2023-05-29T05:20:56;7.90;;;2.55;;
32748;SDS011;19119;52.474;13.710;2023-05-29T05:23:22;7.80;;;2.83;;
32748;SDS011;19119;52.474;13.710;2023-05-29T05:25:47;4.32;;;2.70;;
32748;SDS011;19119;52.474;13.710;2023-05-29T05:28:14;8.30;;;2.90;;
32748;SDS011;19119;52.474;13.710;2023-05-29T05:30:39;7.18;;;2.67;;
32748;SDS011;19119;52.474;13.710;2023-05-29T05:33:05;4.78;;;2.40;;
32748;SDS011;19119;52.474;13.710;2023-05-29T05:35:30;5.45;;;2.72;;
32748;SDS011;19119;52.474;13.710;2023-05-29T05:37:56;4.25;;;2.78;;
32748;SDS011;19119;52.474;13.710;2023-05-29T05:40:23;5.35;;;2.40;;
32748;SDS011;19119;52.474;13.710;2023-05-29T05:42:49;5.47;;;2.40;;
32748;SDS011;19119;52.474;13.710;2023-05-29T05:45:15;5.55;;;2.40;;
32748;SDS011;19119;52.474;13.710;2023-05-29T05:47:40;5.68;;;2.45;;
32748;SDS011;19119;52.474;13.710;2023-05-29T05:50:06;3.35;;;2.00;;
32748;SDS011;19119;52.474;13.710;2023-05-29T05:52:32;4.85;;;2.35;;
32748;SDS011;19119;52.474;13.710;2023-05-29T05:54:58;6.88;;;2.00;;
32748;SDS011;19119;52.474;13.710;2023-05-29T05:57:24;2.67;;;1.60;;
32748;SDS011;19119;52.474;13.710;2023-05-29T05:59:50;4.53;;;2.22;;
32748;SDS011;19119;52.474;13.710;2023-05-29T06:02:16;4.22;;;1.77;;
32748;SDS011;19119;52.474;13.710;2023-05-29T06:04:41;6.30;;;2.20;;
32748;SDS011;19119;52.474;13.710;2023-05-29T06:07:08;5.60;;;2.50;;
32748;SDS011;19119;52.474;13.710;2023-05-29T06:09:33;4.32;;;1.92;;
32748;SDS011;19119;52.474;13.710;2023-05-29T06:11:59;3.80;;;1.63;;
32748;SDS011;19119;52.474;13.710;2023-05-29T06:14:25;4.82;;;2.15;;
32748;SDS011;19119;52.474;13.710;2023-05-29T06:16:50;6.95;;;2.20;;
32748;SDS011;19119;52.474;13.710;2023-05-29T06:19:16;4.55;;;1.90;;
32748;SDS011;19119;52.474;13.710;2023-05-29T06:21:41;3.97;;;2.35;;
32748;SDS011;19119;52.474;13.710;2023-05-29T06:24:07;4.70;;;1.67;;
32748;SDS011;19119;52.474;13.710;2023-05-29T06:26:33;3.05;;;1.60;;
32748;SDS011;19119;52.474;13.710;2023-05-29T06:28:58;5.35;;;1.90;;
32748;SDS011;19119;52.474;13.710;2023-05-29T06:31:24;5.63;;;2.15;;
32748;SDS011;19119;52.474;13.710;2023-05-29T06:33:50;3.67;;;1.52;;
32748;SDS011;19119;52.474;13.710;2023-05-29T06:36:15;2.25;;;1.23;;
32748;SDS011;19119;52.474;13.710;2023-05-29T06:38:45;5.32;;;1.60;;
32748;SDS011;19119;52.474;13.710;2023-05-29T06:41:12;5.45;;;1.70;;
32748;SDS011;19119;52.474;13.710;2023-05-29T06:43:37;2.75;;;1.55;;
32748;SDS011;19119;52.474;13.710;2023-05-29T06:46:02;2.60;;;1.73;;
32748;SDS011;19119;52.474;13.710;2023-05-29T06:48:28;6.90;;;1.90;;
32748;SDS011;19119;52.474;13.710;2023-05-29T06:50:58;2.53;;;1.25;;
32748;SDS011;19119;52.474;13.710;2023-05-29T06:53:24;3.67;;;2.10;;
32748;SDS011;19119;52.474;13.710;2023-05-29T06:55:49;4.22;;;1.90;;
32748;SDS011;19119;52.474;13.710;2023-05-29T06:58:15;3.75;;;2.25;;
32748;SDS011;19119;52.474;13.710;2023-05-29T07:00:40;2.33;;;1.52;;
32748;SDS011;19119;52.474;13.710;2023-05-29T07:03:06;6.05;;;1.70;;
32748;SDS011;19119;52.474;13.710;2023-05-29T07:05:31;2.10;;;1.50;;
32748;SDS011;19119;52.474;13.710;2023-05-29T07:07:57;3.33;;;1.63;;
32748;SDS011;19119;52.474;13.710;2023-05-29T07:10:22;2.15;;;1.70;;
32748;SDS011;19119;52.474;13.710;2023-05-29T07:12:48;3.80;;;1.40;;
32748;SDS011;19119;52.474;13.710;2023-05-29T07:15:13;4.38;;;1.23;;
32748;SDS011;19119;52.474;13.710;2023-05-29T07:17:39;3.60;;;1.35;;
32748;SDS011;19119;52.474;13.710;2023-05-29T07:20:05;2.67;;;1.73;;
32748;SDS011;19119;52.474;13.710;2023-05-29T07:22:32;3.88;;;1.98;;
32748;SDS011;19119;52.474;13.710;2023-05-29T07:24:59;3.53;;;1.75;;
32748;SDS011;19119;52.474;13.710;2023-05-29T07:27:25;4.07;;;1.60;;
32748;SDS011;19119;52.474;13.710;2023-05-29T07:29:50;4.10;;;1.50;;
32748;SDS011;19119;52.474;13.710;2023-05-29T07:32:16;3.28;;;1.73;;
32748;SDS011;19119;52.474;13.710;2023-05-29T07:34:41;8.30;;;1.92;;
32748;SDS011;19119;52.474;13.710;2023-05-29T07:37:07;4.35;;;1.80;;
32748;SDS011;19119;52.474;13.710;2023-05-29T07:39:33;2.75;;;1.40;;
32748;SDS011;19119;52.474;13.710;2023-05-29T07:42:00;3.25;;;1.52;;
32748;SDS011;19119;52.474;13.710;2023-05-29T07:44:26;4.00;;;1.63;;
32748;SDS011;19119;52.474;13.710;2023-05-29T07:46:52;4.00;;;1.50;;
32748;SDS011;19119;52.474;13.710;2023-05-29T07:49:18;2.20;;;1.25;;
32748;SDS011;19119;52.474;13.710;2023-05-29T07:51:44;4.75;;;1.90;;
32748;SDS011;19119;52.474;13.710;2023-05-29T07:54:10;4.72;;;2.00;;
32748;SDS011;19119;52.474;13.710;2023-05-29T07:56:36;3.42;;;1.50;;
32748;SDS011;19119;52.474;13.710;2023-05-29T07:59:02;4.30;;;1.70;;
32748;SDS011;19119;52.474;13.710;2023-05-29T08:01:30;3.05;;;1.45;;
32748;SDS011;19119;52.474;13.710;2023-05-29T08:03:55;3.97;;;1.63;;
32748;SDS011;19119;52.474;13.710;2023-05-29T08:06:21;2.63;;;1.50;;
32748;SDS011;19119;52.474;13.710;2023-05-29T08:08:46;2.22;;;1.20;;
32748;SDS011;19119;52.474;13.710;2023-05-29T08:11:12;4.55;;;1.38;;
32748;SDS011;19119;52.474;13.710;2023-05-29T08:13:38;5.32;;;1.55;;
32748;SDS011;19119;52.474;13.710;2023-05-29T08:16:03;4.05;;;2.17;;
32748;SDS011;19119;52.474;13.710;2023-05-29T08:18:30;3.95;;;1.58;;
32748;SDS011;19119;52.474;13.710;2023-05-29T08:20:56;3.03;;;1.52;;
32748;SDS011;19119;52.474;13.710;2023-05-29T08:23:22;5.03;;;2.03;;
32748;SDS011;19119;52.474;13.710;2023-05-29T08:25:47;2.90;;;1.98;;
32748;SDS011;19119;52.474;13.710;2023-05-29T08:28:14;11.50;;;3.55;;
32748;SDS011;19119;52.474;13.710;2023-05-29T08:30:39;4.78;;;1.77;;
32748;SDS011;19119;52.474;13.710;2023-05-29T08:33:05;5.05;;;1.60;;
32748;SDS011;19119;52.474;13.710;2023-05-29T08:35:30;5.30;;;1.65;;
32748;SDS011;19119;52.474;13.710;2023-05-29T08:41:26;4.97;;;1.98;;
32748;SDS011;19119;52.474;13.710;2023-05-29T08:47:19;5.55;;;2.15;;
32748;SDS011;19119;52.474;13.710;2023-05-29T08:49:53;4.47;;;1.83;;
32748;SDS011;19119;52.474;13.710;2023-05-29T08:52:19;5.93;;;2.00;;
32748;SDS011;19119;52.474;13.710;2023-05-29T08:54:47;4.00;;;2.03;;
32748;SDS011;19119;52.474;13.710;2023-05-29T08:57:13;3.55;;;1.73;;
32748;SDS011;19119;52.474;13.710;2023-05-29T08:59:43;3.95;;;2.05;;
32748;SDS011;19119;52.474;13.710;2023-05-29T09:02:10;7.07;;;2.95;;
32748;SDS011;19119;52.474;13.710;2023-05-29T09:04:40;5.07;;;2.00;;
32748;SDS011;19119;52.474;13.710;2023-05-29T09:07:09;3.00;;;1.80;;
32748;SDS011;19119;52.474;13.710;2023-05-29T09:09:36;4.40;;;1.63;;
32748;SDS011;19119;52.474;13.710;2023-05-29T09:12:02;3.80;;;1.95;;
32748;SDS011;19119;52.474;13.710;2023-05-29T09:14:46;9.38;;;2.05;;
32748;SDS011;19119;52.474;13.710;2023-05-29T09:17:13;4.88;;;2.20;;
32748;SDS011;19119;52.474;13.710;2023-05-29T09:19:41;4.95;;;2.22;;
32748;SDS011;19119;52.474;13.710;2023-05-29T09:22:08;3.30;;;1.77;;
32748;SDS011;19119;52.474;13.710;2023-05-29T09:24:42;5.82;;;2.38;;
32748;SDS011;19119;52.474;13.710;2023-05-29T09:27:11;6.70;;;2.80;;
32748;SDS011;19119;52.474;13.710;2023-05-29T09:29:46;3.40;;;1.90;;
32748;SDS011;19119;52.474;13.710;2023-05-29T09:32:20;4.13;;;2.30;;
32748;SDS011;19119;52.474;13.710;2023-05-29T09:34:47;4.25;;;1.98;;
32748;SDS011;19119;52.474;13.710;2023-05-29T09:37:12;4.30;;;2.17;;
32748;SDS011;19119;52.474;13.710;2023-05-29T09:42:06;4.72;;;2.00;;
32748;SDS011;19119;52.474;13.710;2023-05-29T09:44:32;3.30;;;2.00;;
32748;SDS011;19119;52.474;13.710;2023-05-29T09:46:58;3.65;;;1.98;;
32748;SDS011;19119;52.474;13.710;2023-05-29T09:49:25;6.30;;;2.40;;
32748;SDS011;19119;52.474;13.710;2023-05-29T09:51:54;2.55;;;1.80;;
32748;SDS011;19119;52.474;13.710;2023-05-29T09:54:21;5.97;;;2.45;;
32748;SDS011;19119;52.474;13.710;2023-05-29T09:56:47;6.38;;;1.95;;
32748;SDS011;19119;52.474;13.710;2023-05-29T09:59:14;3.33;;;1.80;;
32748;SDS011;19119;52.474;13.710;2023-05-29T10:01:41;4.50;;;1.90;;
32748;SDS011;19119;52.474;13.710;2023-05-29T10:04:11;9.60;;;2.25;;
32748;SDS011;19119;52.474;13.710;2023-05-29T10:06:38;4.50;;;1.88;;
32748;SDS011;19119;52.474;13.710;2023-05-29T10:09:09;3.83;;;2.03;;
32748;SDS011;19119;52.474;13.710;2023-05-29T10:11:37;5.70;;;2.72;;
32748;SDS011;19119;52.474;13.710;2023-05-29T10:20:50;3.88;;;2.00;;
32748;SDS011;19119;52.474;13.710;2023-05-29T10:23:21;4.32;;;2.33;;
32748;SDS011;19119;52.474;13.710;2023-05-29T10:25:51;3.90;;;1.80;;
32748;SDS011;19119;52.474;13.710;2023-05-29T10:28:18;6.38;;;2.05;;
32748;SDS011;19119;52.474;13.710;2023-05-29T10:31:01;5.32;;;1.55;;
32748;SDS011;19119;52.474;13.710;2023-05-29T10:36:27;4.78;;;2.15;;
32748;SDS011;19119;52.474;13.710;2023-05-29T10:38:59;5.13;;;2.42;;
32748;SDS011;19119;52.474;13.710;2023-05-29T10:43:57;3.40;;;1.88;;
32748;SDS011;19119;52.474;13.710;2023-05-29T10:47:01;4.93;;;1.80;;
32748;SDS011;19119;52.474;13.710;2023-05-29T10:49:16;5.13;;;1.73;;
32748;SDS011;19119;52.474;13.710;2023-05-29T10:51:42;4.00;;;1.45;;
32748;SDS011;19119;52.474;13.710;2023-05-29T10:54:08;4.32;;;1.63;;
32748;SDS011;19119;52.474;13.710;2023-05-29T10:56:34;4.60;;;1.63;;
32748;SDS011;19119;52.474;13.710;2023-05-29T10:59:00;3.78;;;1.90;;
32748;SDS011;19119;52.474;13.710;2023-05-29T11:01:27;5.57;;;1.77;;
32748;SDS011;19119;52.474;13.710;2023-05-29T11:06:42;3.05;;;1.75;;
32748;SDS011;19119;52.474;13.710;2023-05-29T11:12:38;5.35;;;1.88;;
32748;SDS011;19119;52.474;13.710;2023-05-29T11:19:57;4.25;;;1.98;;
32748;SDS011;19119;52.474;13.710;2023-05-29T11:22:49;3.13;;;1.60;;
32748;SDS011;19119;52.474;13.710;2023-05-29T11:25:21;4.03;;;2.03;;
32748;SDS011;19119;52.474;13.710;2023-05-29T11:27:46;3.53;;;1.83;;
32748;SDS011;19119;52.474;13.710;2023-05-29T11:30:12;3.72;;;1.80;;
32748;SDS011;19119;52.474;13.710;2023-05-29T11:32:39;4.22;;;2.00;;
32748;SDS011;19119;52.474;13.710;2023-05-29T11:35:08;4.43;;;1.88;;
32748;SDS011;19119;52.474;13.710;2023-05-29T11:37:35;3.85;;;1.75;;
32748;SDS011;19119;52.474;13.710;2023-05-29T11:40:06;4.93;;;1.98;;
32748;SDS011;19119;52.474;13.710;2023-05-29T11:42:34;2.78;;;1.52;;
32748;SDS011;19119;52.474;13.710;2023-05-29T11:45:10;4.55;;;1.60;;
32748;SDS011;19119;52.474;13.710;2023-05-29T11:47:57;2.78;;;1.90;;
32748;SDS011;19119;52.474;13.710;2023-05-29T11:50:25;6.10;;;1.95;;
32748;SDS011;19119;52.474;13.710;2023-05-29T11:52:51;6.22;;;2.53;;
32748;SDS011;19119;52.474;13.710;2023-05-29T11:55:18;3.92;;;1.95;;
32748;SDS011;19119;52.474;13.710;2023-05-29T11:57:48;5.00;;;2.20;;
32748;SDS011;19119;52.474;13.710;2023-05-29T12:00:15;3.20;;;1.85;;
32748;SDS011;19119;52.474;13.710;2023-05-29T12:02:41;3.95;;;1.85;;
32748;SDS011;19119;52.474;13.710;2023-05-29T12:05:08;4.68;;;2.58;;
32748;SDS011;19119;52.474;13.710;2023-05-29T12:07:35;4.05;;;2.00;;
32748;SDS011;19119;52.474;13.710;2023-05-29T12:10:14;3.08;;;2.00;;
32748;SDS011;19119;52.474;13.710;2023-05-29T12:12:41;3.60;;;1.75;;
32748;SDS011;19119;52.474;13.710;2023-05-29T12:15:07;3.92;;;1.70;;
32748;SDS011;19119;52.474;13.710;2023-05-29T12:17:34;2.63;;;1.77;;
32748;SDS011;19119;52.474;13.710;2023-05-29T12:20:03;3.38;;;1.58;;
32748;SDS011;19119;52.474;13.710;2023-05-29T12:22:33;4.03;;;2.00;;
32748;SDS011;19119;52.474;13.710;2023-05-29T12:25:06;3.13;;;1.80;;
32748;SDS011;19119;52.474;13.710;2023-05-29T12:27:34;2.72;;;2.05;;
32748;SDS011;19119;52.474;13.710;2023-05-29T12:30:07;3.38;;;2.13;;
32748;SDS011;19119;52.474;13.710;2023-05-29T12:32:40;4.55;;;1.85;;
32748;SDS011;19119;52.474;13.710;2023-05-29T12:35:20;6.18;;;1.95;;
32748;SDS011;19119;52.474;13.710;2023-05-29T12:37:48;3.55;;;1.65;;
32748;SDS011;19119;52.474;13.710;2023-05-29T12:40:17;4.20;;;2.13;;
32748;SDS011;19119;52.474;13.710;2023-05-29T12:42:48;3.80;;;1.92;;
32748;SDS011;19119;52.474;13.710;2023-05-29T12:45:18;4.60;;;1.90;;
32748;SDS011;19119;52.474;13.710;2023-05-29T12:47:54;3.72;;;2.15;;
32748;SDS011;19119;52.474;13.710;2023-05-29T12:50:48;3.45;;;1.90;;
32748;SDS011;19119;52.474;13.710;2023-05-29T12:53:15;5.30;;;1.83;;
32748;SDS011;19119;52.474;13.710;2023-05-29T12:55:43;2.90;;;1.63;;
32748;SDS011;19119;52.474;13.710;2023-05-29T12:58:13;5.50;;;2.10;;
32748;SDS011;19119;52.474;13.710;2023-05-29T13:00:40;3.80;;;2.25;;
32748;SDS011;19119;52.474;13.710;2023-05-29T13:03:09;3.20;;;1.70;;
32748;SDS011;19119;52.474;13.710;2023-05-29T13:05:38;4.80;;;2.13;;
32748;SDS011;19119;52.474;13.710;2023-05-29T13:08:04;3.05;;;2.00;;
32748;SDS011;19119;52.474;13.710;2023-05-29T13:10:32;9.07;;;2.10;;
32748;SDS011;19119;52.474;13.710;2023-05-29T13:12:57;3.63;;;2.00;;
32748;SDS011;19119;52.474;13.710;2023-05-29T13:15:24;4.88;;;2.40;;
32748;SDS011;19119;52.474;13.710;2023-05-29T13:17:50;2.60;;;1.65;;
32748;SDS011;19119;52.474;13.710;2023-05-29T13:20:16;4.13;;;2.55;;
32748;SDS011;19119;52.474;13.710;2023-05-29T13:22:42;5.72;;;2.63;;
32748;SDS011;19119;52.474;13.710;2023-05-29T13:25:10;4.63;;;2.10;;
32748;SDS011;19119;52.474;13.710;2023-05-29T13:27:37;2.25;;;1.55;;
32748;SDS011;19119;52.474;13.710;2023-05-29T13:30:04;3.90;;;2.30;;
32748;SDS011;19119;52.474;13.710;2023-05-29T13:32:30;4.90;;;2.10;;
32748;SDS011;19119;52.474;13.710;2023-05-29T13:34:56;4.32;;;2.10;;
32748;SDS011;19119;52.474;13.710;2023-05-29T13:37:22;6.90;;;1.73;;
32748;SDS011;19119;52.474;13.710;2023-05-29T13:39:48;3.45;;;2.00;;
32748;SDS011;19119;52.474;13.710;2023-05-29T13:42:13;3.42;;;1.58;;
32748;SDS011;19119;52.474;13.710;2023-05-29T13:44:39;4.63;;;2.10;;
32748;SDS011;19119;52.474;13.710;2023-05-29T13:47:05;4.85;;;1.63;;
32748;SDS011;19119;52.474;13.710;2023-05-29T13:49:31;4.07;;;2.08;;
32748;SDS011;19119;52.474;13.710;2023-05-29T13:51:58;4.45;;;2.03;;
32748;SDS011;19119;52.474;13.710;2023-05-29T13:54:23;3.03;;;1.67;;
32748;SDS011;19119;52.474;13.710;2023-05-29T13:56:48;6.75;;;2.13;;
32748;SDS011;19119;52.474;13.710;2023-05-29T13:59:14;5.63;;;2.28;;
32748;SDS011;19119;52.474;13.710;2023-05-29T14:01:40;4.85;;;2.15;;
32748;SDS011;19119;52.474;13.710;2023-05-29T14:04:05;3.88;;;2.00;;
32748;SDS011;19119;52.474;13.710;2023-05-29T14:06:31;3.88;;;1.90;;
32748;SDS011;19119;52.474;13.710;2023-05-29T14:08:58;5.95;;;2.00;;
32748;SDS011;19119;52.474;13.710;2023-05-29T14:21:31;5.78;;;1.92;;
32748;SDS011;19119;52.474;13.710;2023-05-29T14:23:56;5.07;;;2.28;;
32748;SDS011;19119;52.474;13.710;2023-05-29T14:26:22;4.47;;;1.80;;
32748;SDS011;19119;52.474;13.710;2023-05-29T14:28:47;6.93;;;1.73;;
32748;SDS011;19119;52.474;13.710;2023-05-29T14:31:13;4.13;;;2.00;;
32748;SDS011;19119;52.474;13.710;2023-05-29T14:33:38;5.35;;;1.80;;
32748;SDS011;19119;52.474;13.710;2023-05-29T14:36:04;4.75;;;2.25;;
32748;SDS011;19119;52.474;13.710;2023-05-29T14:38:30;5.60;;;1.92;;
32748;SDS011;19119;52.474;13.710;2023-05-29T14:40:55;4.22;;;2.05;;
32748;SDS011;19119;52.474;13.710;2023-05-29T14:43:20;6.10;;;1.60;;
32748;SDS011;19119;52.474;13.710;2023-05-29T14:45:46;4.68;;;2.25;;
32748;SDS011;19119;52.474;13.710;2023-05-29T14:48:11;4.50;;;1.90;;
32748;SDS011;19119;52.474;13.710;2023-05-29T14:50:37;2.50;;;1.45;;
32748;SDS011;19119;52.474;13.710;2023-05-29T14:53:03;5.28;;;2.20;;
32748;SDS011;19119;52.474;13.710;2023-05-29T14:55:28;4.63;;;2.33;;
32748;SDS011;19119;52.474;13.710;2023-05-29T14:57:56;5.45;;;2.13;;
32748;SDS011;19119;52.474;13.710;2023-05-29T15:00:21;7.00;;;2.22;;
32748;SDS011;19119;52.474;13.710;2023-05-29T15:02:47;5.10;;;2.55;;
32748;SDS011;19119;52.474;13.710;2023-05-29T15:05:14;8.65;;;2.28;;
32748;SDS011;19119;52.474;13.710;2023-05-29T15:07:39;3.47;;;1.67;;
32748;SDS011;19119;52.474;13.710;2023-05-29T15:10:05;5.03;;;1.52;;
32748;SDS011;19119;52.474;13.710;2023-05-29T15:12:32;5.25;;;1.90;;
32748;SDS011;19119;52.474;13.710;2023-05-29T15:14:57;6.15;;;2.58;;
32748;SDS011;19119;52.474;13.710;2023-05-29T15:17:23;6.43;;;1.90;;
32748;SDS011;19119;52.474;13.710;2023-05-29T15:19:48;7.47;;;2.33;;